Time;durP1;ratioP1;P1;durP2;ratioP2;P2;SDS_P1;SDS_P2;PMS_P1;PMS_P2;Temp;Humidity;BMP_temperature;BMP_pressure;BME280_temperature;BME280_humidity;BME280_pressure;Samples;Min_cycle;Max_cycle;Signal;HPM_P1;HPM_P2
2024/04/19 00:01:24;;;;;;;4.22;1.75;;;;;;;;;;5343270;26;20000;-69
2024/04/19 00:03:50;;;;;;;7.95;1.75;;;;;;;;;;5318378;26;20014;-69
2024/04/19 00:06:16;;;;;;;8.02;1.67;;;;;;;;;;5313878;26;20009;-69
2024/04/19 00:08:41;;;;;;;5.28;1.50;;;;;;;;;;5394236;26;20005;-69
2024/04/19 00:11:06;;;;;;;2.72;1.95;;;;;;;;;;5321330;26;20025;-69
2024/04/19 00:13:32;;;;;;;4.68;1.45;;;;;;;;;;5317667;26;20117;-69
2024/04/19 00:15:57;;;;;;;4.90;2.30;;;;;;;;;;5345041;26;20008;-69
2024/04/19 00:18:26;;;;;;;3.63;1.67;;;;;;;;;;5347604;26;20004;-69
2024/04/19 00:20:53;;;;;;;4.47;1.60;;;;;;;;;;5309172;26;19993;-70
2024/04/19 00:23:19;;;;;;;5.30;2.40;;;;;;;;;;5345787;26;20008;-69
2024/04/19 00:25:44;;;;;;;4.20;1.98;;;;;;;;;;5343903;26;19989;-69
2024/04/19 00:28:09;;;;;;;3.55;1.63;;;;;;;;;;5317768;26;19993;-70
2024/04/19 00:30:35;;;;;;;2.75;1.58;;;;;;;;;;5312758;27;20001;-69
2024/04/19 00:33:00;;;;;;;10.45;1.98;;;;;;;;;;5333457;26;20001;-69
2024/04/19 00:35:25;;;;;;;5.00;1.63;;;;;;;;;;5347200;26;20332;-69
2024/04/19 00:37:50;;;;;;;2.28;1.52;;;;;;;;;;5349372;21;20014;-66
2024/04/19 00:40:17;;;;;;;4.85;2.20;;;;;;;;;;5278891;27;20014;-66
2024/04/19 00:42:42;;;;;;;5.15;2.42;;;;;;;;;;5279188;27;20468;-66
2024/04/19 00:45:33;;;;;;;2.47;1.73;;;;;;;;;;5278118;27;20013;-65
2024/04/19 00:47:59;;;;;;;6.07;2.63;;;;;;;;;;5276435;27;20076;-66
2024/04/19 00:50:25;;;;;;;2.97;1.55;;;;;;;;;;5276759;27;20009;-65
2024/04/19 00:52:50;;;;;;;3.13;1.70;;;;;;;;;;5277522;27;19998;-66
2024/04/19 00:55:16;;;;;;;6.15;2.13;;;;;;;;;;5278693;27;19998;-65
2024/04/19 00:57:42;;;;;;;5.32;2.05;;;;;;;;;;5278070;27;20361;-65
2024/04/19 01:00:09;;;;;;;5.93;1.95;;;;;;;;;;5277340;27;20441;-66
2024/04/19 01:02:35;;;;;;;4.30;1.95;;;;;;;;;;5255679;27;20007;-65
2024/04/19 01:05:01;;;;;;;9.63;2.03;;;;;;;;;;5244255;27;20074;-65
2024/04/19 01:07:26;;;;;;;5.82;1.95;;;;;;;;;;5261281;27;20006;-66
2024/04/19 01:09:52;;;;;;;5.30;2.03;;;;;;;;;;5278649;27;19999;-66
2024/04/19 01:12:17;;;;;;;3.30;1.88;;;;;;;;;;5278585;27;19998;-66
2024/04/19 01:14:42;;;;;;;5.85;1.75;;;;;;;;;;5278666;27;20026;-66
2024/04/19 01:17:08;;;;;;;5.43;1.65;;;;;;;;;;5278435;27;19990;-65
2024/04/19 01:19:33;;;;;;;3.85;1.50;;;;;;;;;;5278579;27;19998;-66
2024/04/19 01:21:58;;;;;;;2.83;1.77;;;;;;;;;;5278518;27;20003;-66
2024/04/19 01:24:31;;;;;;;1.73;1.42;;;;;;;;;;5278498;27;20001;-66
2024/04/19 01:26:56;;;;;;;3.15;2.08;;;;;;;;;;5276764;27;20013;-66
2024/04/19 01:29:21;;;;;;;9.73;2.13;;;;;;;;;;5278389;27;19999;-66
2024/04/19 01:31:47;;;;;;;4.10;1.45;;;;;;;;;;5278251;27;20042;-66
2024/04/19 01:34:12;;;;;;;3.10;2.90;;;;;;;;;;5278421;27;20363;-66
2024/04/19 01:36:37;;;;;;;3.13;2.00;;;;;;;;;;5278372;27;20072;-66
2024/04/19 01:39:03;;;;;;;1.73;1.60;;;;;;;;;;5278379;27;20034;-66
2024/04/19 01:41:28;;;;;;;4.10;1.63;;;;;;;;;;5278405;27;19998;-66
2024/04/19 01:43:53;;;;;;;2.42;1.55;;;;;;;;;;5278120;27;20010;-66
2024/04/19 01:46:18;;;;;;;2.53;1.52;;;;;;;;;;5278225;27;19999;-66
2024/04/19 01:48:44;;;;;;;4.03;1.40;;;;;;;;;;5278004;27;20382;-66
2024/04/19 01:51:09;;;;;;;3.80;1.92;;;;;;;;;;5278058;27;20002;-66
2024/04/19 01:53:34;;;;;;;3.75;1.85;;;;;;;;;;5277900;27;20027;-66
2024/04/19 01:55:59;;;;;;;6.20;1.63;;;;;;;;;;5278011;27;20030;-66
2024/04/19 01:58:25;;;;;;;1.80;1.50;;;;;;;;;;5278034;27;20034;-66
2024/04/19 02:00:50;;;;;;;1.80;1.55;;;;;;;;;;5277947;27;20492;-65
2024/04/19 02:03:15;;;;;;;3.22;1.85;;;;;;;;;;5277989;27;20009;-65
2024/04/19 02:05:41;;;;;;;4.50;1.45;;;;;;;;;;5277816;27;20038;-66
2024/04/19 02:08:06;;;;;;;6.30;1.83;;;;;;;;;;5277848;27;20013;-65
2024/04/19 02:10:35;;;;;;;4.57;1.73;;;;;;;;;;5277847;27;20018;-66
2024/04/19 02:13:00;;;;;;;3.03;1.60;;;;;;;;;;5277670;27;20076;-66
2024/04/19 02:15:25;;;;;;;4.85;1.83;;;;;;;;;;5277853;27;20415;-66
2024/04/19 02:17:51;;;;;;;2.65;1.38;;;;;;;;;;5277630;27;20572;-66
2024/04/19 02:20:16;;;;;;;2.78;1.85;;;;;;;;;;5277644;27;20039;-65
2024/04/19 02:22:41;;;;;;;2.90;1.60;;;;;;;;;;5277544;27;20068;-66
2024/04/19 02:25:07;;;;;;;2.53;1.85;;;;;;;;;;5277547;27;19994;-66
2024/04/19 02:33:00;;;;;;;6.60;1.75;;;;;;;;;;5281193;27;20013;-66
2024/04/19 02:35:25;;;;;;;3.83;1.67;;;;;;;;;;5280882;27;20010;-66
2024/04/19 02:37:52;;;;;;;4.38;2.15;;;;;;;;;;5275785;27;20012;-65
2024/04/19 02:40:17;;;;;;;2.72;1.83;;;;;;;;;;5280805;27;20448;-65
2024/04/19 02:42:42;;;;;;;3.17;2.05;;;;;;;;;;5279106;27;19998;-65
2024/04/19 02:45:07;;;;;;;6.75;2.13;;;;;;;;;;5280372;27;20007;-65
2024/04/19 02:47:35;;;;;;;3.65;2.10;;;;;;;;;;5280303;27;19995;-66
2024/04/19 02:50:00;;;;;;;4.05;1.98;;;;;;;;;;5280583;27;20073;-66
2024/04/19 02:52:26;;;;;;;3.13;1.83;;;;;;;;;;5280456;27;20038;-66
2024/04/19 02:54:52;;;;;;;2.92;1.80;;;;;;;;;;5278246;27;20467;-65
2024/04/19 02:57:17;;;;;;;5.22;1.80;;;;;;;;;;5306326;27;19999;-65
2024/04/19 02:59:42;;;;;;;4.90;2.20;;;;;;;;;;5279804;27;20002;-65
2024/04/19 03:02:07;;;;;;;7.50;2.33;;;;;;;;;;5280357;27;20031;-65
2024/04/19 03:04:37;;;;;;;7.63;2.55;;;;;;;;;;5280457;27;20454;-66
2024/04/19 03:07:02;;;;;;;3.13;1.75;;;;;;;;;;5279970;27;19995;-66
2024/04/19 03:09:27;;;;;;;2.78;1.80;;;;;;;;;;5280274;27;19998;-65
2024/04/19 03:11:53;;;;;;;4.65;2.03;;;;;;;;;;5279997;27;20483;-65
2024/04/19 03:14:18;;;;;;;4.78;2.13;;;;;;;;;;5279407;27;20002;-66
2024/04/19 03:16:43;;;;;;;3.85;2.17;;;;;;;;;;5279512;27;20336;-65
2024/04/19 03:19:09;;;;;;;4.68;2.03;;;;;;;;;;5279858;27;20069;-65
2024/04/19 03:21:34;;;;;;;4.45;2.30;;;;;;;;;;5279417;27;20001;-65
2024/04/19 03:23:59;;;;;;;4.32;2.42;;;;;;;;;;5279887;27;19998;-66
2024/04/19 03:26:25;;;;;;;6.15;2.53;;;;;;;;;;5279233;27;20441;-65
2024/04/19 03:28:51;;;;;;;5.60;2.35;;;;;;;;;;5279373;27;20006;-65
2024/04/19 03:31:16;;;;;;;3.55;2.53;;;;;;;;;;5278696;27;19994;-66
2024/04/19 03:33:41;;;;;;;6.22;2.85;;;;;;;;;;5279830;27;20009;-66
2024/04/19 03:36:07;;;;;;;3.85;2.35;;;;;;;;;;5279067;27;19998;-65
2024/04/19 03:38:32;;;;;;;10.10;2.92;;;;;;;;;;5277456;27;20016;-66
2024/04/19 03:40:57;;;;;;;3.50;2.55;;;;;;;;;;5279994;27;19998;-65
2024/04/19 03:43:23;;;;;;;6.82;2.88;;;;;;;;;;5277740;27;19998;-66
2024/04/19 03:45:49;;;;;;;2.90;2.55;;;;;;;;;;5277832;27;19998;-65
2024/04/19 03:48:14;;;;;;;4.15;2.55;;;;;;;;;;5279330;27;20426;-66
2024/04/19 03:50:40;;;;;;;6.20;2.58;;;;;;;;;;5279224;27;20011;-66
2024/04/19 03:53:05;;;;;;;2.80;2.20;;;;;;;;;;5278895;27;20010;-66
2024/04/19 03:55:31;;;;;;;3.92;2.53;;;;;;;;;;5278722;27;19999;-65
2024/04/19 03:57:57;;;;;;;6.00;2.22;;;;;;;;;;5279639;27;20009;-66
2024/04/19 04:00:22;;;;;;;4.90;2.95;;;;;;;;;;5277836;27;20531;-65
2024/04/19 04:02:50;;;;;;;3.42;1.95;;;;;;;;;;5279607;27;20490;-66
2024/04/19 04:05:15;;;;;;;2.28;1.80;;;;;;;;;;5271785;27;20011;-65
2024/04/19 04:07:40;;;;;;;3.05;2.20;;;;;;;;;;5269317;27;20395;-65
2024/04/19 04:10:06;;;;;;;2.22;1.70;;;;;;;;;;5279196;27;19998;-66
2024/04/19 04:12:32;;;;;;;7.88;2.75;;;;;;;;;;5277119;27;20002;-66
2024/04/19 04:14:57;;;;;;;4.70;2.60;;;;;;;;;;5277947;27;20017;-65
2024/04/19 04:17:22;;;;;;;7.90;3.03;;;;;;;;;;5279518;27;19998;-65
2024/04/19 04:19:48;;;;;;;6.53;2.58;;;;;;;;;;5278794;27;20046;-65
2024/04/19 04:22:13;;;;;;;7.63;2.65;;;;;;;;;;5278744;27;20010;-65
2024/04/19 04:24:38;;;;;;;7.55;2.33;;;;;;;;;;5278353;27;20010;-65
2024/04/19 04:27:04;;;;;;;6.53;2.63;;;;;;;;;;5278303;27;20002;-65
2024/04/19 04:29:29;;;;;;;8.25;2.30;;;;;;;;;;5278282;27;19998;-65
2024/04/19 04:31:55;;;;;;;4.00;1.63;;;;;;;;;;5277136;27;19998;-65
2024/04/19 04:34:20;;;;;;;7.32;2.58;;;;;;;;;;5278608;27;19994;-65
2024/04/19 04:36:45;;;;;;;10.52;2.28;;;;;;;;;;5278005;27;20001;-65
2024/04/19 04:39:10;;;;;;;8.50;2.50;;;;;;;;;;5278339;27;19994;-65
2024/04/19 04:41:39;;;;;;;12.45;2.90;;;;;;;;;;5277920;27;20017;-65
2024/04/19 04:44:07;;;;;;;11.35;2.63;;;;;;;;;;5278070;27;20403;-65
2024/04/19 04:46:32;;;;;;;10.07;2.60;;;;;;;;;;5278387;27;20010;-65
2024/04/19 04:48:59;;;;;;;9.05;2.53;;;;;;;;;;5277760;27;20359;-65
2024/04/19 04:51:24;;;;;;;10.77;4.15;;;;;;;;;;5276463;27;20002;-65
2024/04/19 04:53:49;;;;;;;9.65;3.22;;;;;;;;;;5277814;27;20010;-65
2024/04/19 04:56:15;;;;;;;15.68;3.38;;;;;;;;;;5276748;27;20459;-65
2024/04/19 04:58:40;;;;;;;7.95;1.92;;;;;;;;;;5278214;27;19998;-65
2024/04/19 05:01:05;;;;;;;18.55;2.70;;;;;;;;;;5276863;27;19998;-65
2024/04/19 05:03:30;;;;;;;9.65;2.90;;;;;;;;;;5277589;27;20006;-65
2024/04/19 05:05:56;;;;;;;12.98;2.90;;;;;;;;;;5277603;27;20030;-65
2024/04/19 05:08:21;;;;;;;14.27;2.97;;;;;;;;;;5277958;27;20415;-66
2024/04/19 05:10:46;;;;;;;9.73;3.03;;;;;;;;;;5277689;27;20021;-65
2024/04/19 05:13:12;;;;;;;10.23;2.45;;;;;;;;;;5275769;27;19998;-65
2024/04/19 05:15:37;;;;;;;11.02;2.13;;;;;;;;;;5277992;27;20060;-65
2024/04/19 05:18:02;;;;;;;6.80;2.40;;;;;;;;;;5277279;27;20002;-66
2024/04/19 05:20:27;;;;;;;11.32;3.53;;;;;;;;;;5276162;27;19999;-65
2024/04/19 05:22:53;;;;;;;22.02;5.53;;;;;;;;;;5276349;27;20017;-65
2024/04/19 05:25:19;;;;;;;14.25;4.55;;;;;;;;;;5277373;27;20003;-65
2024/04/19 05:27:44;;;;;;;7.63;2.88;;;;;;;;;;5277392;27;19999;-65
2024/04/19 05:30:10;;;;;;;22.27;4.95;;;;;;;;;;5276249;27;20086;-65
2024/04/19 05:32:35;;;;;;;11.15;2.97;;;;;;;;;;5276904;27;20014;-65
2024/04/19 05:35:00;;;;;;;12.80;5.50;;;;;;;;;;5276522;27;20034;-65
2024/04/19 05:37:25;;;;;;;14.52;3.80;;;;;;;;;;5275775;27;20098;-65
2024/04/19 05:39:51;;;;;;;27.35;8.35;;;;;;;;;;5276895;27;20466;-65
2024/04/19 05:42:16;;;;;;;22.25;6.35;;;;;;;;;;5277317;27;20005;-65
2024/04/19 05:44:41;;;;;;;16.15;5.05;;;;;;;;;;5276173;27;20359;-65
2024/04/19 05:47:07;;;;;;;31.38;8.07;;;;;;;;;;5277019;27;20002;-65
2024/04/19 05:49:32;;;;;;;15.75;4.15;;;;;;;;;;5276391;27;19999;-65
2024/04/19 05:51:57;;;;;;;36.72;9.85;;;;;;;;;;5276926;27;20026;-65
2024/04/19 05:54:23;;;;;;;25.45;5.60;;;;;;;;;;5275652;27;20022;-64
2024/04/19 05:56:48;;;;;;;23.50;6.65;;;;;;;;;;5276866;27;20081;-65
2024/04/19 05:59:13;;;;;;;10.23;3.95;;;;;;;;;;5276446;27;20002;-65
2024/04/19 06:01:39;;;;;;;25.63;7.18;;;;;;;;;;5277232;27;19998;-65
2024/04/19 06:04:04;;;;;;;15.23;5.90;;;;;;;;;;5276392;27;19999;-65
2024/04/19 06:06:30;;;;;;;15.07;3.28;;;;;;;;;;5275281;27;20013;-65
2024/04/19 06:08:55;;;;;;;9.55;2.88;;;;;;;;;;5279995;27;20490;-65
2024/04/19 06:11:21;;;;;;;10.95;2.63;;;;;;;;;;5279446;27;20006;-65
2024/04/19 06:13:47;;;;;;;10.00;2.58;;;;;;;;;;5280012;27;20006;-65
2024/04/19 06:16:12;;;;;;;9.10;2.45;;;;;;;;;;5279975;27;20003;-65
2024/04/19 06:18:37;;;;;;;6.60;2.38;;;;;;;;;;5279631;27;19998;-65
2024/04/19 06:21:03;;;;;;;11.15;2.97;;;;;;;;;;5278581;27;20444;-65
2024/04/19 06:23:29;;;;;;;7.63;2.22;;;;;;;;;;5278783;27;20112;-65
2024/04/19 06:25:55;;;;;;;15.45;3.10;;;;;;;;;;5279471;27;20343;-65
2024/04/19 06:28:21;;;;;;;8.98;2.75;;;;;;;;;;5280081;27;19998;-65
2024/04/19 06:30:46;;;;;;;13.38;2.60;;;;;;;;;;5279066;27;20459;-65
2024/04/19 06:33:11;;;;;;;8.38;2.47;;;;;;;;;;5280026;27;20005;-65
2024/04/19 06:35:37;;;;;;;20.73;2.22;;;;;;;;;;5279342;27;20314;-65
2024/04/19 06:38:02;;;;;;;4.18;1.55;;;;;;;;;;5314002;21;20561;-69
2024/04/19 06:40:27;;;;;;;6.75;1.95;;;;;;;;;;5348812;26;20067;-68
2024/04/19 06:42:53;;;;;;;3.75;1.85;;;;;;;;;;5312193;26;20001;-68
2024/04/19 06:45:18;;;;;;;9.95;2.40;;;;;;;;;;5318386;26;19998;-68
2024/04/19 06:47:43;;;;;;;6.97;2.00;;;;;;;;;;5313841;27;20066;-68
2024/04/19 06:50:08;;;;;;;6.32;3.28;;;;;;;;;;5330227;26;20076;-68
2024/04/19 06:52:34;;;;;;;12.45;2.65;;;;;;;;;;5313592;27;20422;-68
2024/04/19 06:54:59;;;;;;;13.60;3.40;;;;;;;;;;5321714;26;20034;-68
2024/04/19 06:57:24;;;;;;;9.63;2.38;;;;;;;;;;5344975;26;20005;-68
2024/04/19 06:59:50;;;;;;;10.55;2.22;;;;;;;;;;5348075;26;19993;-69
2024/04/19 07:02:18;;;;;;;11.50;2.47;;;;;;;;;;5360022;26;20080;-68
2024/04/19 07:04:43;;;;;;;8.98;2.30;;;;;;;;;;5311785;27;20029;-68
2024/04/19 07:07:08;;;;;;;6.07;2.03;;;;;;;;;;5313709;26;20002;-68
2024/04/19 07:09:34;;;;;;;5.80;2.88;;;;;;;;;;5319354;26;20459;-68
2024/04/19 07:11:59;;;;;;;11.50;2.40;;;;;;;;;;5348431;26;20008;-68
2024/04/19 07:14:27;;;;;;;14.75;3.22;;;;;;;;;;5343767;26;20004;-68
2024/04/19 07:16:53;;;;;;;8.05;2.42;;;;;;;;;;5338970;26;20078;-68
2024/04/19 07:19:18;;;;;;;4.90;2.35;;;;;;;;;;5348032;26;20005;-68
2024/04/19 07:21:43;;;;;;;7.03;2.05;;;;;;;;;;5347924;26;20350;-68
2024/04/19 07:24:08;;;;;;;7.38;2.25;;;;;;;;;;5347933;26;20004;-67
2024/04/19 07:26:37;;;;;;;8.93;2.17;;;;;;;;;;5348195;26;20005;-68
2024/04/19 07:29:03;;;;;;;8.65;2.90;;;;;;;;;;5348033;26;20092;-68
2024/04/19 07:31:28;;;;;;;16.77;3.28;;;;;;;;;;5345034;26;20047;-67
2024/04/19 07:33:53;;;;;;;15.45;2.90;;;;;;;;;;5340759;26;20074;-67
2024/04/19 07:36:19;;;;;;;12.00;3.58;;;;;;;;;;5347458;26;20025;-67
2024/04/19 07:38:44;;;;;;;13.57;3.67;;;;;;;;;;5344700;26;20038;-67
2024/04/19 07:41:09;;;;;;;17.10;3.92;;;;;;;;;;5347858;26;19997;-67
2024/04/19 07:43:35;;;;;;;14.57;4.95;;;;;;;;;;5335959;26;20026;-67
2024/04/19 07:46:01;;;;;;;16.85;3.50;;;;;;;;;;5344656;26;20005;-67
2024/04/19 07:48:27;;;;;;;15.27;3.28;;;;;;;;;;5344042;26;20366;-67
2024/04/19 07:50:53;;;;;;;9.45;2.92;;;;;;;;;;5361760;26;20002;-68
2024/04/19 07:53:20;;;;;;;6.82;2.53;;;;;;;;;;5312983;26;20092;-67
2024/04/19 07:55:46;;;;;;;10.23;2.95;;;;;;;;;;5326015;26;20015;-68
2024/04/19 07:58:12;;;;;;;14.20;3.17;;;;;;;;;;5347412;26;19996;-68
2024/04/19 08:00:37;;;;;;;12.23;2.92;;;;;;;;;;5337274;26;20326;-68
2024/04/19 08:03:03;;;;;;;12.80;3.05;;;;;;;;;;5347382;26;19988;-67
2024/04/19 08:05:28;;;;;;;17.73;3.10;;;;;;;;;;5340047;26;20001;-67
2024/04/19 08:07:54;;;;;;;10.63;3.03;;;;;;;;;;5345395;26;20012;-68
2024/04/19 08:10:20;;;;;;;12.75;3.10;;;;;;;;;;5347052;26;20462;-68
2024/04/19 08:12:46;;;;;;;10.63;2.88;;;;;;;;;;5324546;26;20005;-68
2024/04/19 08:15:11;;;;;;;10.60;3.67;;;;;;;;;;5346205;26;20008;-67
2024/04/19 08:17:38;;;;;;;19.05;2.97;;;;;;;;;;5331895;26;19998;-67
2024/04/19 08:20:04;;;;;;;9.48;2.55;;;;;;;;;;5333705;26;20048;-67
2024/04/19 08:22:29;;;;;;;8.45;2.47;;;;;;;;;;5347433;26;19997;-67
2024/04/19 08:24:55;;;;;;;5.40;2.15;;;;;;;;;;5347531;26;20331;-67
2024/04/19 08:27:20;;;;;;;8.45;2.35;;;;;;;;;;5346858;26;20004;-68
2024/04/19 08:29:45;;;;;;;8.13;2.05;;;;;;;;;;5335444;26;20028;-67
2024/04/19 08:32:11;;;;;;;7.15;2.08;;;;;;;;;;5345358;26;19993;-67
2024/04/19 08:34:36;;;;;;;3.92;1.73;;;;;;;;;;5347004;26;19989;-67
2024/04/19 08:37:02;;;;;;;4.68;2.25;;;;;;;;;;5313666;26;20440;-66
2024/04/19 08:39:27;;;;;;;6.47;1.92;;;;;;;;;;5345654;26;19997;-67
2024/04/19 08:41:55;;;;;;;8.40;2.10;;;;;;;;;;5346727;26;20000;-67
2024/04/19 08:44:21;;;;;;;4.85;1.88;;;;;;;;;;5353497;26;20002;-67
2024/04/19 08:46:47;;;;;;;6.47;1.88;;;;;;;;;;5312173;27;20012;-67
2024/04/19 08:49:14;;;;;;;8.40;1.75;;;;;;;;;;5340116;26;20012;-68
2024/04/19 08:51:40;;;;;;;4.55;1.85;;;;;;;;;;5344805;26;20468;-67
2024/04/19 08:54:05;;;;;;;7.15;1.95;;;;;;;;;;5343365;26;20012;-67
2024/04/19 08:56:31;;;;;;;5.10;1.80;;;;;;;;;;5344874;26;20160;-68
2024/04/19 08:58:57;;;;;;;6.35;2.30;;;;;;;;;;5314918;26;20429;-67
2024/04/19 09:01:23;;;;;;;2.45;1.40;;;;;;;;;;5329814;26;20008;-67
2024/04/19 09:03:48;;;;;;;2.63;1.48;;;;;;;;;;5346373;26;19992;-67
2024/04/19 09:06:14;;;;;;;12.93;2.92;;;;;;;;;;5346697;26;20033;-67
2024/04/19 09:08:40;;;;;;;5.18;1.67;;;;;;;;;;5346702;26;20379;-67
2024/04/19 09:11:12;;;;;;;6.82;1.83;;;;;;;;;;5346046;26;19989;-67
2024/04/19 09:13:38;;;;;;;11.57;4.43;;;;;;;;;;5344602;26;20462;-67
2024/04/19 09:16:03;;;;;;;7.63;1.88;;;;;;;;;;5344690;26;20001;-68
2024/04/19 09:18:29;;;;;;;5.50;1.83;;;;;;;;;;5346105;26;19997;-67
2024/04/19 09:20:54;;;;;;;3.33;1.60;;;;;;;;;;5344444;26;20081;-67
2024/04/19 09:23:20;;;;;;;4.25;2.13;;;;;;;;;;5333348;26;19998;-67
2024/04/19 09:25:51;;;;;;;9.35;2.00;;;;;;;;;;5346440;26;20004;-67
2024/04/19 09:28:19;;;;;;;10.38;2.25;;;;;;;;;;5345817;26;20334;-67
2024/04/19 09:30:44;;;;;;;5.03;1.48;;;;;;;;;;5320408;26;20020;-67
2024/04/19 09:33:15;;;;;;;8.07;1.63;;;;;;;;;;5311316;27;20467;-67
2024/04/19 09:35:41;;;;;;;3.42;1.45;;;;;;;;;;5309723;26;19997;-67
2024/04/19 09:38:06;;;;;;;6.25;1.92;;;;;;;;;;5311950;27;20097;-67
2024/04/19 09:40:32;;;;;;;2.75;1.40;;;;;;;;;;5312051;27;20013;-67
2024/04/19 09:43:04;;;;;;;6.47;1.33;;;;;;;;;;5314143;27;19994;-67
2024/04/19 09:45:29;;;;;;;5.68;1.73;;;;;;;;;;5315611;26;20358;-67
2024/04/19 09:47:54;;;;;;;6.07;1.88;;;;;;;;;;5315119;27;20001;-67
2024/04/19 09:50:28;;;;;;;10.32;1.88;;;;;;;;;;5313459;27;20002;-67
2024/04/19 09:52:56;;;;;;;4.93;1.25;;;;;;;;;;5315293;26;19998;-67
2024/04/19 09:55:30;;;;;;;5.75;1.67;;;;;;;;;;5343070;26;20005;-69
2024/04/19 09:57:56;;;;;;;8.27;2.40;;;;;;;;;;5315623;26;20030;-67
2024/04/19 10:00:23;;;;;;;10.55;2.45;;;;;;;;;;5315224;27;20374;-68
2024/04/19 10:02:49;;;;;;;8.70;2.17;;;;;;;;;;5341791;26;20006;-67
2024/04/19 10:05:15;;;;;;;8.85;1.42;;;;;;;;;;5315011;27;20080;-67
2024/04/19 10:07:41;;;;;;;9.98;2.28;;;;;;;;;;5315241;27;20030;-68
2024/04/19 10:10:06;;;;;;;3.10;1.63;;;;;;;;;;5315098;27;19997;-68
2024/04/19 10:12:32;;;;;;;4.03;1.73;;;;;;;;;;5315075;27;20001;-68
2024/04/19 10:14:58;;;;;;;5.35;1.45;;;;;;;;;;5315073;27;20026;-68
2024/04/19 10:17:23;;;;;;;4.22;1.92;;;;;;;;;;5314892;27;20068;-68
2024/04/19 10:19:50;;;;;;;4.60;1.83;;;;;;;;;;5315217;27;20470;-68
2024/04/19 10:22:20;;;;;;;8.25;2.08;;;;;;;;;;5314848;26;19993;-68
2024/04/19 10:24:56;;;;;;;6.72;2.30;;;;;;;;;;5314318;26;20451;-69
2024/04/19 10:27:25;;;;;;;6.75;1.67;;;;;;;;;;5315421;26;20008;-68
2024/04/19 10:29:50;;;;;;;4.57;1.65;;;;;;;;;;5315094;26;20452;-68
2024/04/19 10:32:17;;;;;;;4.85;1.60;;;;;;;;;;5314840;27;20034;-68
2024/04/19 10:34:42;;;;;;;5.32;1.58;;;;;;;;;;5314867;26;20352;-68
2024/04/19 10:37:07;;;;;;;10.20;1.83;;;;;;;;;;5314500;27;20075;-68
2024/04/19 10:39:34;;;;;;;4.72;2.08;;;;;;;;;;5314950;27;20004;-68
2024/04/19 10:41:59;;;;;;;7.28;1.58;;;;;;;;;;5314980;26;20033;-68
2024/04/19 10:44:26;;;;;;;7.55;1.77;;;;;;;;;;5315023;26;20444;-68
2024/04/19 10:46:52;;;;;;;6.53;2.20;;;;;;;;;;5314914;26;20012;-68
2024/04/19 10:49:20;;;;;;;4.68;1.75;;;;;;;;;;5342127;26;20002;-68
2024/04/19 10:51:48;;;;;;;7.10;1.92;;;;;;;;;;5314004;27;20012;-68
2024/04/19 10:54:14;;;;;;;6.07;1.45;;;;;;;;;;5284108;27;20470;-68
2024/04/19 10:56:39;;;;;;;11.77;2.13;;;;;;;;;;5315079;26;20029;-69
2024/04/19 10:59:04;;;;;;;10.43;2.13;;;;;;;;;;5315560;27;20002;-69
2024/04/19 11:01:30;;;;;;;3.50;1.58;;;;;;;;;;5320018;26;20008;-68
2024/04/19 11:03:56;;;;;;;6.93;1.60;;;;;;;;;;5315178;26;20005;-68
2024/04/19 11:06:21;;;;;;;12.18;2.08;;;;;;;;;;5315154;27;19998;-68
2024/04/19 11:08:46;;;;;;;10.25;2.30;;;;;;;;;;5312216;27;20009;-68
2024/04/19 11:11:12;;;;;;;8.77;2.40;;;;;;;;;;5315479;27;20455;-68
2024/04/19 11:13:37;;;;;;;9.35;2.08;;;;;;;;;;5342122;26;20001;-68
2024/04/19 11:16:03;;;;;;;6.82;1.77;;;;;;;;;;5314435;27;20466;-68
2024/04/19 11:18:28;;;;;;;6.13;1.42;;;;;;;;;;5326589;26;20012;-69
2024/04/19 11:20:54;;;;;;;5.75;3.15;;;;;;;;;;5312484;27;20030;-68
2024/04/19 11:23:19;;;;;;;10.27;2.45;;;;;;;;;;5325156;26;20479;-68
2024/04/19 11:25:45;;;;;;;5.22;1.90;;;;;;;;;;5345262;26;19997;-68
2024/04/19 11:28:11;;;;;;;4.18;1.90;;;;;;;;;;5336379;26;20069;-69
2024/04/19 11:30:38;;;;;;;10.77;2.67;;;;;;;;;;5347169;26;19997;-68
2024/04/19 11:33:05;;;;;;;7.05;1.92;;;;;;;;;;5368106;26;20025;-68
2024/04/19 11:35:30;;;;;;;11.90;2.92;;;;;;;;;;5315497;26;20013;-69
2024/04/19 11:37:56;;;;;;;8.02;1.98;;;;;;;;;;5317888;26;20427;-67
2024/04/19 11:40:22;;;;;;;8.00;2.22;;;;;;;;;;5339864;26;20350;-68
2024/04/19 11:42:50;;;;;;;5.38;2.30;;;;;;;;;;5346366;26;20016;-67
2024/04/19 11:45:17;;;;;;;8.63;3.72;;;;;;;;;;5337402;26;19997;-67
2024/04/19 11:47:43;;;;;;;5.22;2.65;;;;;;;;;;5347843;26;20025;-67
2024/04/19 11:50:08;;;;;;;4.47;1.92;;;;;;;;;;5337073;26;20013;-68
2024/04/19 11:52:34;;;;;;;8.57;2.58;;;;;;;;;;5345317;26;20008;-68
2024/04/19 11:55:01;;;;;;;103.57;45.40;;;;;;;;;;5336694;26;20067;-67
2024/04/19 11:57:26;;;;;;;7.03;3.47;;;;;;;;;;5345970;26;20003;-67
2024/04/19 11:59:51;;;;;;;6.20;1.85;;;;;;;;;;5342240;26;20001;-68
2024/04/19 12:02:17;;;;;;;4.07;1.48;;;;;;;;;;5339956;26;20413;-67
2024/04/19 12:04:42;;;;;;;3.15;1.73;;;;;;;;;;5347618;26;20004;-69
2024/04/19 12:07:08;;;;;;;6.70;1.92;;;;;;;;;;5325334;26;20402;-68
2024/04/19 12:09:33;;;;;;;5.43;2.25;;;;;;;;;;5313655;27;20009;-69
2024/04/19 12:12:00;;;;;;;6.03;1.48;;;;;;;;;;5318855;26;19997;-68
2024/04/19 12:14:25;;;;;;;6.15;2.45;;;;;;;;;;5340815;26;20352;-68
2024/04/19 12:16:51;;;;;;;5.28;1.92;;;;;;;;;;5313484;27;20038;-68
2024/04/19 12:19:16;;;;;;;2.33;1.83;;;;;;;;;;5313649;27;20022;-68
2024/04/19 12:21:41;;;;;;;5.15;1.70;;;;;;;;;;5345012;26;20012;-68
2024/04/19 12:24:07;;;;;;;5.38;1.70;;;;;;;;;;5345668;26;20451;-68
2024/04/19 12:26:32;;;;;;;2.63;1.70;;;;;;;;;;5334197;26;19993;-68
2024/04/19 12:28:57;;;;;;;4.03;1.80;;;;;;;;;;5340345;26;20033;-68
2024/04/19 12:31:22;;;;;;;4.70;1.52;;;;;;;;;;5338109;26;20045;-68
2024/04/19 12:33:48;;;;;;;4.82;1.75;;;;;;;;;;5337363;26;20001;-68
2024/04/19 12:36:13;;;;;;;2.75;1.75;;;;;;;;;;5347454;26;20430;-68
2024/04/19 12:38:38;;;;;;;2.80;2.13;;;;;;;;;;5366297;21;20041;-66
2024/04/19 12:41:04;;;;;;;3.63;2.20;;;;;;;;;;5282098;26;20359;-68
2024/04/19 12:43:29;;;;;;;3.38;2.03;;;;;;;;;;5308983;26;20071;-66
2024/04/19 12:45:55;;;;;;;3.28;2.03;;;;;;;;;;5339211;26;20455;-66
2024/04/19 12:48:21;;;;;;;3.45;2.45;;;;;;;;;;5309684;26;20463;-69
2024/04/19 12:50:46;;;;;;;4.93;1.67;;;;;;;;;;5290246;26;20002;-67
2024/04/19 12:53:11;;;;;;;2.70;1.83;;;;;;;;;;5278674;27;20035;-68
2024/04/19 12:55:37;;;;;;;2.80;2.00;;;;;;;;;;5285487;26;20467;-67
2024/04/19 12:58:02;;;;;;;5.13;2.13;;;;;;;;;;5313494;26;20448;-67
2024/04/19 13:00:30;;;;;;;5.07;2.17;;;;;;;;;;5309734;26;20009;-68
2024/04/19 13:02:56;;;;;;;2.85;1.90;;;;;;;;;;5285174;26;20376;-68
2024/04/19 13:05:25;;;;;;;3.92;1.83;;;;;;;;;;5276163;27;20072;-68
2024/04/19 13:07:50;;;;;;;2.55;2.03;;;;;;;;;;5317916;26;19998;-65
2024/04/19 13:10:21;;;;;;;4.15;2.15;;;;;;;;;;5278082;27;20009;-68
2024/04/19 13:12:46;;;;;;;4.55;2.03;;;;;;;;;;5276653;27;19994;-68
2024/04/19 13:15:12;;;;;;;3.22;1.85;;;;;;;;;;5311890;26;20012;-68
2024/04/19 13:17:39;;;;;;;9.20;2.30;;;;;;;;;;5312037;26;20420;-68
2024/04/19 13:20:05;;;;;;;3.22;2.17;;;;;;;;;;5312830;26;19994;-68
2024/04/19 13:22:31;;;;;;;3.75;2.40;;;;;;;;;;5310710;27;19997;-68
2024/04/19 13:24:56;;;;;;;2.90;1.95;;;;;;;;;;5312385;26;20037;-68
2024/04/19 13:27:21;;;;;;;7.30;2.70;;;;;;;;;;5311300;26;19993;-68
2024/04/19 13:29:47;;;;;;;3.47;1.73;;;;;;;;;;5312158;26;19997;-68
2024/04/19 13:32:12;;;;;;;2.63;1.95;;;;;;;;;;5283009;26;20013;-68
2024/04/19 13:34:37;;;;;;;3.75;2.08;;;;;;;;;;5282535;26;19998;-68
2024/04/19 13:37:03;;;;;;;4.80;2.58;;;;;;;;;;5283738;26;19995;-67
2024/04/19 13:39:29;;;;;;;3.17;1.80;;;;;;;;;;5304346;27;20026;-68
2024/04/19 13:41:54;;;;;;;2.78;1.80;;;;;;;;;;5290900;26;19997;-68
2024/04/19 13:44:19;;;;;;;3.70;1.67;;;;;;;;;;5311889;26;19993;-69
2024/04/19 13:46:45;;;;;;;5.63;1.73;;;;;;;;;;5306595;26;20343;-68
2024/04/19 13:49:11;;;;;;;2.03;1.73;;;;;;;;;;5306988;27;20008;-68
2024/04/19 13:51:36;;;;;;;1.95;1.50;;;;;;;;;;5281320;27;19997;-68
2024/04/19 13:54:01;;;;;;;2.13;1.70;;;;;;;;;;5311930;26;20332;-67
2024/04/19 13:56:27;;;;;;;1.75;1.65;;;;;;;;;;5310966;26;19998;-68
2024/04/19 13:58:52;;;;;;;4.18;1.40;;;;;;;;;;5311719;26;20372;-68
2024/04/19 14:01:17;;;;;;;1.60;1.33;;;;;;;;;;5312054;26;20093;-68
2024/04/19 14:03:43;;;;;;;3.10;1.60;;;;;;;;;;5311765;26;20042;-68
2024/04/19 14:06:08;;;;;;;3.88;1.80;;;;;;;;;;5329149;26;20386;-67
2024/04/19 14:08:35;;;;;;;2.28;1.45;;;;;;;;;;5336503;26;20001;-66
2024/04/19 14:11:00;;;;;;;2.17;1.45;;;;;;;;;;5311506;26;20138;-65
2024/04/19 14:13:26;;;;;;;1.05;0.95;;;;;;;;;;5310307;26;20005;-68
2024/04/19 14:15:51;;;;;;;3.22;1.20;;;;;;;;;;5299361;26;20100;-66
2024/04/19 14:18:16;;;;;;;1.30;1.20;;;;;;;;;;5311228;26;20038;-68
2024/04/19 14:20:43;;;;;;;1.17;1.00;;;;;;;;;;5291340;26;19998;-68
2024/04/19 14:23:09;;;;;;;1.45;1.17;;;;;;;;;;5303949;27;20009;-70
2024/04/19 14:25:35;;;;;;;1.77;1.10;;;;;;;;;;5281443;26;20002;-66
2024/04/19 14:28:00;;;;;;;1.70;1.17;;;;;;;;;;5285303;26;19998;-68
2024/04/19 14:30:26;;;;;;;1.88;1.40;;;;;;;;;;5280171;27;19994;-68
2024/04/19 14:32:51;;;;;;;2.50;1.63;;;;;;;;;;5295036;26;20045;-68
2024/04/19 14:35:16;;;;;;;1.90;1.40;;;;;;;;;;5314261;26;20038;-68
2024/04/19 14:37:42;;;;;;;2.67;1.73;;;;;;;;;;5309126;26;20030;-68